createdAt,value
2019-04-01T00:00:45.980Z,9.20
2019-04-01T00:03:15.792Z,8.53
2019-04-01T00:05:45.707Z,9.47
2019-04-01T00:08:15.092Z,11.37
2019-04-01T00:10:44.539Z,9.73
2019-04-01T00:13:14.026Z,10.63
2019-04-01T00:15:43.873Z,9.70
2019-04-01T00:18:13.469Z,9.27
2019-04-01T00:20:43.085Z,9.00
2019-04-01T00:23:12.835Z,9.67
2019-04-01T00:25:42.433Z,10.53
2019-04-01T00:28:11.813Z,9.33
2019-04-01T00:30:41.672Z,11.93
2019-04-01T00:33:11.335Z,10.07
2019-04-01T00:35:41.110Z,13.17
2019-04-01T00:38:10.814Z,8.97
2019-04-01T00:40:40.662Z,13.27
2019-04-01T00:43:15.432Z,9.10
2019-04-01T00:45:46.503Z,8.97
2019-04-01T00:48:16.287Z,9.53
2019-04-01T00:50:46.059Z,9.47
2019-04-01T00:53:17.950Z,9.43
2019-04-01T00:55:47.921Z,9.33
2019-04-01T00:58:17.742Z,8.73
2019-04-01T01:00:47.442Z,9.53
2019-04-01T01:03:17.028Z,9.47
2019-04-01T01:05:46.415Z,10.13
2019-04-01T01:08:16.222Z,9.03
2019-04-01T01:10:45.722Z,10.13
2019-04-01T01:13:15.488Z,9.53
2019-04-01T01:15:45.131Z,12.20
2019-04-01T01:18:14.715Z,9.40
2019-04-01T01:20:44.288Z,9.67
2019-04-01T01:23:13.756Z,9.43
2019-04-01T01:25:43.931Z,9.90
2019-04-01T01:28:13.310Z,8.20
2019-04-01T01:30:42.719Z,8.43
2019-04-01T01:33:12.360Z,11.53
2019-04-01T01:35:42.095Z,8.47
2019-04-01T01:38:11.635Z,8.30
2019-04-01T01:40:41.235Z,9.53
2019-04-01T01:43:10.984Z,11.47
2019-04-01T01:45:40.460Z,10.03
2019-04-01T01:48:10.173Z,8.37
2019-04-01T01:50:39.940Z,9.93
2019-04-01T01:53:09.493Z,9.67
2019-04-01T01:55:38.884Z,9.20
2019-04-01T01:58:08.539Z,10.10
2019-04-01T02:00:39.861Z,9.50
2019-04-01T02:03:09.311Z,8.70
2019-04-01T02:05:38.684Z,9.23
2019-04-01T02:08:08.516Z,8.97
2019-04-01T02:10:38.243Z,10.47
2019-04-01T02:13:07.748Z,8.23
2019-04-01T02:15:37.372Z,10.37
2019-04-01T02:18:07.207Z,9.30
2019-04-01T02:20:36.912Z,9.40
2019-04-01T02:23:06.518Z,10.40
2019-04-01T02:25:36.213Z,10.87
2019-04-01T02:28:05.727Z,9.50
2019-04-01T02:30:35.109Z,10.80
2019-04-01T02:33:04.891Z,9.60
2019-04-01T02:35:34.565Z,10.40
2019-04-01T02:38:04.247Z,10.20
2019-04-01T02:40:34.670Z,10.53
2019-04-01T02:43:04.552Z,10.47
2019-04-01T02:45:34.313Z,11.73
2019-04-01T02:48:03.701Z,10.10
2019-04-01T02:50:33.099Z,13.20
2019-04-01T02:53:02.597Z,11.63
2019-04-01T02:55:32.320Z,11.23
2019-04-01T02:58:01.923Z,10.17
2019-04-01T03:00:31.737Z,24.90
2019-04-01T03:03:01.521Z,20.90
2019-04-01T03:05:31.325Z,14.43
2019-04-01T03:08:00.857Z,14.40
2019-04-01T03:10:30.362Z,18.67
2019-04-01T03:13:00.070Z,14.10
2019-04-01T03:15:29.693Z,14.17
2019-04-01T03:17:59.184Z,12.63
2019-04-01T03:20:29.018Z,12.20
2019-04-01T03:22:58.416Z,11.03
2019-04-01T03:25:28.043Z,10.77
2019-04-01T03:27:57.742Z,9.67
2019-04-01T03:30:27.437Z,9.47
2019-04-01T03:32:56.843Z,11.63
2019-04-01T03:35:26.430Z,10.30
2019-04-01T03:37:55.953Z,9.93
2019-04-01T03:40:25.437Z,12.30
2019-04-01T03:42:54.825Z,10.47
2019-04-01T03:45:24.445Z,11.37
2019-04-01T03:47:53.927Z,9.33
2019-04-01T03:50:23.790Z,11.80
2019-04-01T03:52:53.450Z,11.50
2019-04-01T03:55:22.873Z,13.67
2019-04-01T03:57:52.496Z,10.73
2019-04-01T04:00:22.044Z,11.87
2019-04-01T04:02:51.576Z,9.73
2019-04-01T04:05:21.601Z,10.93
2019-04-01T04:07:51.499Z,11.43
2019-04-01T04:10:20.975Z,9.60
2019-04-01T04:12:50.535Z,11.20
2019-04-01T04:15:20.180Z,9.87
2019-04-01T04:17:49.763Z,11.47
2019-04-01T04:20:19.479Z,12.30
2019-04-01T04:22:48.871Z,12.17
2019-04-01T04:25:18.364Z,21.63
2019-04-01T04:27:47.865Z,23.17
2019-04-01T04:30:20.151Z,18.60
2019-04-01T04:32:49.956Z,14.50
2019-04-01T04:35:19.781Z,15.07
2019-04-01T04:37:49.468Z,14.57
2019-04-01T04:40:18.979Z,19.40
2019-04-01T04:42:48.700Z,31.80
2019-04-01T04:45:18.413Z,18.73
2019-04-01T04:47:47.994Z,16.47
2019-04-01T04:50:17.703Z,18.00
2019-04-01T04:52:47.427Z,12.90
2019-04-01T04:55:17.133Z,12.30
2019-04-01T04:57:46.869Z,14.90
2019-04-01T05:00:16.535Z,19.87
2019-04-01T05:02:46.824Z,12.40
2019-04-01T05:05:16.688Z,11.07
2019-04-01T05:07:46.087Z,14.23
2019-04-01T05:10:15.783Z,11.87
2019-04-01T05:12:45.588Z,11.67
2019-04-01T05:15:15.134Z,19.43
2019-04-01T05:17:44.845Z,15.07
2019-04-01T05:20:16.753Z,11.00
2019-04-01T05:22:46.785Z,17.63
2019-04-01T05:25:16.253Z,17.33
2019-04-01T05:27:50.802Z,12.43
2019-04-01T05:30:20.384Z,17.10
2019-04-01T05:32:53.302Z,21.63
2019-04-01T05:35:24.505Z,18.67
2019-04-01T05:37:55.611Z,16.27
2019-04-01T05:40:26.336Z,15.50
2019-04-01T05:42:56.923Z,14.47
2019-04-01T05:45:26.316Z,19.93
2019-04-01T05:47:56.485Z,22.20
2019-04-01T05:50:26.502Z,21.80
2019-04-01T05:52:57.035Z,23.37
2019-04-01T05:55:27.208Z,21.57
2019-04-01T05:57:56.843Z,20.27
2019-04-01T06:00:35.487Z,28.43
2019-04-01T06:03:05.225Z,31.87
2019-04-01T06:05:35.115Z,31.77
2019-04-01T06:08:05.107Z,28.13
2019-04-01T06:10:34.951Z,27.40
2019-04-01T06:13:04.559Z,24.87
2019-04-01T06:15:34.174Z,26.50
2019-04-01T06:18:03.590Z,31.70
2019-04-01T06:20:35.379Z,28.03
2019-04-01T06:23:05.283Z,31.80
2019-04-01T06:25:35.446Z,28.17
2019-04-01T06:28:05.025Z,24.13
2019-04-01T06:30:34.443Z,25.43
2019-04-01T06:33:04.564Z,23.10
2019-04-01T06:35:34.706Z,22.70
2019-04-01T06:38:04.264Z,24.12
2019-04-01T06:40:33.764Z,23.97
2019-04-01T06:43:03.552Z,25.90
2019-04-01T06:45:33.527Z,26.17
2019-04-01T06:48:03.208Z,26.50
2019-04-01T06:50:32.962Z,26.53
2019-04-01T06:53:02.900Z,25.30
2019-04-01T06:55:32.771Z,22.77
2019-04-01T06:58:02.866Z,23.40
2019-04-01T07:00:32.485Z,20.33
2019-04-01T07:03:02.234Z,21.07
2019-04-01T07:05:31.811Z,24.40
2019-04-01T07:08:01.502Z,21.33
2019-04-01T07:10:31.324Z,21.23
2019-04-01T07:13:01.159Z,21.07
2019-04-01T07:15:30.560Z,22.90
2019-04-01T07:18:00.350Z,20.80
2019-04-01T07:20:30.221Z,20.40
2019-04-01T07:22:59.837Z,21.23
2019-04-01T07:25:34.085Z,21.37
2019-04-01T07:28:02.870Z,23.37
2019-04-01T07:30:32.633Z,20.00
2019-04-01T07:33:02.376Z,21.37
2019-04-01T07:35:32.083Z,19.50
2019-04-01T07:38:02.094Z,18.33
2019-04-01T07:40:31.933Z,16.47
2019-04-01T07:43:01.634Z,17.97
2019-04-01T07:45:31.024Z,16.87
2019-04-01T07:48:00.559Z,12.93
2019-04-01T07:50:30.153Z,14.03
2019-04-01T07:52:59.782Z,14.73
2019-04-01T07:55:29.731Z,11.97
2019-04-01T07:57:59.915Z,12.33
2019-04-01T08:00:29.592Z,12.37
2019-04-01T08:02:59.346Z,10.80
2019-04-01T08:05:29.309Z,9.87
2019-04-01T08:07:59.004Z,11.03
2019-04-01T08:10:28.735Z,10.55
2019-04-01T08:12:58.590Z,10.95
2019-04-01T08:15:28.887Z,10.38
2019-04-01T08:17:58.576Z,10.45
2019-04-01T08:20:28.176Z,9.15
2019-04-01T08:22:57.800Z,10.85
2019-04-01T08:25:27.289Z,10.70
2019-04-01T08:27:57.311Z,9.95
2019-04-01T08:30:27.137Z,10.82
2019-04-01T08:32:56.534Z,9.60
2019-04-01T08:35:26.332Z,8.78
2019-04-01T08:37:56.156Z,8.25
2019-04-01T08:40:26.004Z,7.67
2019-04-01T08:42:55.762Z,7.50
2019-04-01T08:45:25.405Z,9.50
2019-04-01T08:47:55.204Z,7.80
2019-04-01T08:50:25.147Z,6.28
2019-04-01T08:52:54.571Z,6.45
2019-04-01T08:55:23.951Z,7.00
2019-04-01T08:57:53.840Z,6.87
2019-04-01T09:00:23.552Z,6.67
2019-04-01T09:02:53.129Z,6.53
2019-04-01T09:05:22.734Z,5.95
2019-04-01T09:07:53.267Z,6.95
2019-04-01T09:10:23.037Z,6.42
2019-04-01T09:12:53.138Z,6.62
2019-04-01T09:15:22.697Z,7.37
2019-04-01T09:17:52.601Z,7.00
2019-04-01T09:20:22.090Z,6.50
2019-04-01T09:22:51.701Z,7.20
2019-04-01T09:25:21.422Z,6.70
2019-04-01T09:27:51.214Z,6.97
2019-04-01T09:30:21.222Z,6.75
2019-04-01T09:32:50.733Z,7.20
2019-04-01T09:35:20.270Z,8.10
2019-04-01T09:37:50.059Z,6.45
2019-04-01T09:40:19.805Z,6.67
2019-04-01T09:42:49.403Z,6.37
2019-04-01T09:45:18.868Z,5.85
2019-04-01T09:47:48.712Z,6.50
2019-04-01T09:50:18.209Z,5.90
2019-04-01T09:52:47.860Z,6.08
2019-04-01T09:55:17.764Z,5.10
2019-04-01T09:57:47.349Z,5.33
2019-04-01T10:00:17.365Z,5.40
2019-04-01T10:02:46.888Z,5.53
2019-04-01T10:05:17.459Z,5.70
2019-04-01T10:07:47.144Z,5.53
2019-04-01T10:10:16.644Z,4.65
2019-04-01T10:12:46.448Z,5.45
2019-04-01T10:15:16.453Z,13.03
2019-04-01T10:17:45.924Z,4.70
2019-04-01T10:20:15.738Z,5.17
2019-04-01T10:22:45.474Z,5.72
2019-04-01T10:25:15.066Z,6.17
2019-04-01T10:27:44.455Z,5.10
2019-04-01T10:30:14.345Z,6.87
2019-04-01T10:32:43.968Z,5.95
2019-04-01T10:35:14.505Z,21.05
2019-04-01T10:37:44.008Z,28.27
2019-04-01T10:40:14.141Z,9.25
2019-04-01T10:42:43.741Z,6.17
2019-04-01T10:45:13.866Z,4.55
2019-04-01T10:47:43.772Z,5.45
2019-04-01T10:50:14.272Z,5.05
2019-04-01T10:52:44.242Z,4.85
2019-04-01T10:55:14.222Z,4.95
2019-04-01T10:57:44.196Z,4.62
2019-04-01T11:00:14.371Z,4.60
2019-04-01T11:02:44.139Z,5.47
2019-04-01T11:05:14.232Z,5.28
2019-04-01T11:07:43.813Z,5.40
2019-04-01T11:10:13.528Z,4.87
2019-04-01T11:12:43.327Z,5.72
2019-04-01T11:15:15.714Z,4.70
2019-04-01T11:17:45.105Z,4.55
2019-04-01T11:20:14.896Z,5.17
2019-04-01T11:22:44.562Z,6.00
2019-04-01T11:25:14.838Z,4.95
2019-04-01T11:27:44.805Z,6.95
2019-04-01T11:30:15.930Z,6.85
2019-04-01T11:32:45.761Z,6.25
2019-04-01T11:35:17.176Z,6.40
2019-04-01T11:37:46.778Z,6.95
2019-04-01T11:40:16.282Z,5.83
2019-04-01T11:42:46.024Z,5.75
2019-04-01T11:45:15.856Z,6.78
2019-04-01T11:47:45.538Z,8.95
2019-04-01T11:50:15.706Z,6.10
2019-04-01T11:52:45.191Z,6.10
2019-04-01T11:55:14.743Z,6.17
2019-04-01T11:57:44.257Z,6.15
2019-04-01T12:00:17.195Z,6.58
2019-04-01T12:02:46.815Z,6.65
2019-04-01T12:05:16.523Z,7.10
2019-04-01T12:07:47.091Z,6.78
2019-04-01T12:10:16.935Z,7.53
2019-04-01T12:12:46.578Z,8.05
2019-04-01T12:15:16.183Z,6.97
2019-04-01T12:17:45.935Z,9.35
2019-04-01T12:20:15.718Z,18.77
2019-04-01T12:22:45.977Z,14.07
2019-04-01T12:25:15.726Z,15.58
2019-04-01T12:27:45.652Z,12.03
2019-04-01T12:30:15.559Z,16.55
2019-04-01T12:32:45.327Z,7.80
2019-04-01T12:35:15.383Z,9.95
2019-04-01T12:37:45.983Z,9.03
2019-04-01T12:40:15.919Z,8.88
2019-04-01T12:42:46.593Z,8.70
2019-04-01T12:45:16.726Z,7.03
2019-04-01T12:47:46.280Z,6.72
2019-04-01T12:50:16.062Z,6.72
2019-04-01T12:52:46.269Z,6.75
2019-04-01T12:55:16.871Z,6.85
2019-04-01T12:57:48.306Z,6.83
2019-04-01T13:00:18.044Z,6.73
2019-04-01T13:02:47.837Z,9.63
2019-04-01T13:05:18.521Z,7.10
2019-04-01T13:07:48.054Z,7.40
2019-04-01T13:10:17.612Z,7.05
2019-04-01T13:12:46.997Z,7.25
2019-04-01T13:15:16.587Z,6.65
2019-04-01T13:17:46.107Z,6.58
2019-04-01T13:20:16.905Z,7.30
2019-04-01T13:22:46.406Z,6.33
2019-04-01T13:25:15.989Z,6.17
2019-04-01T13:27:45.805Z,6.83
2019-04-01T13:30:15.683Z,6.25
2019-04-01T13:32:45.388Z,6.83
2019-04-01T13:35:14.953Z,6.83
2019-04-01T13:37:46.940Z,7.33
2019-04-01T13:40:19.509Z,8.90
2019-04-01T13:42:48.382Z,5.80
2019-04-01T13:45:17.890Z,6.70
2019-04-01T13:47:47.372Z,9.37
2019-04-01T13:50:17.038Z,7.03
2019-04-01T13:52:46.750Z,6.17
2019-04-01T13:55:16.581Z,8.37
2019-04-01T13:57:46.325Z,8.87
2019-04-01T14:00:16.556Z,6.53
2019-04-01T14:02:46.384Z,8.20
2019-04-01T14:05:16.192Z,11.63
2019-04-01T14:07:45.786Z,9.50
2019-04-01T14:10:15.575Z,8.27
2019-04-01T14:12:45.555Z,7.67
2019-04-01T14:15:16.549Z,8.97
2019-04-01T14:17:46.150Z,6.73
2019-04-01T14:20:15.767Z,6.03
2019-04-01T14:22:45.529Z,7.50
2019-04-01T14:25:15.297Z,7.43
2019-04-01T14:27:44.868Z,8.37
2019-04-01T14:30:14.812Z,6.40
2019-04-01T14:32:44.374Z,7.47
2019-04-01T14:35:15.932Z,6.33
2019-04-01T14:37:45.371Z,6.43
2019-04-01T14:40:15.267Z,8.03
2019-04-01T14:42:47.012Z,7.63
2019-04-01T14:45:16.649Z,7.37
2019-04-01T14:47:57.238Z,7.13
2019-04-01T14:50:17.801Z,8.63
2019-04-01T14:52:47.437Z,9.60
2019-04-01T14:55:17.336Z,9.47
2019-04-01T14:57:46.819Z,6.20
2019-04-01T15:00:17.251Z,7.27
2019-04-01T15:02:46.730Z,12.00
2019-04-01T15:05:16.585Z,11.43
2019-04-01T15:07:47.096Z,7.47
2019-04-01T15:10:17.386Z,7.73
2019-04-01T15:12:46.774Z,6.90
2019-04-01T15:15:16.621Z,7.87
2019-04-01T15:17:47.229Z,6.93
2019-04-01T15:20:17.072Z,7.53
2019-04-01T15:22:46.465Z,8.27
2019-04-01T15:25:16.070Z,9.73
2019-04-01T15:27:45.721Z,9.93
2019-04-01T15:30:15.524Z,6.70
2019-04-01T15:32:45.097Z,9.37
2019-04-01T15:35:15.111Z,11.93
2019-04-01T15:37:44.619Z,15.83
2019-04-01T15:40:14.610Z,17.63
2019-04-01T15:42:44.139Z,7.53
2019-04-01T15:45:14.053Z,7.97
2019-04-01T15:47:43.596Z,8.30
2019-04-01T15:50:27.267Z,9.00
2019-04-01T15:52:44.379Z,10.57
2019-04-01T15:55:14.540Z,9.13
2019-04-01T15:57:44.015Z,9.97
2019-04-01T16:00:14.250Z,6.97
2019-04-01T16:02:43.750Z,8.97
2019-04-01T16:05:13.595Z,8.63
2019-04-01T16:07:43.070Z,8.67
2019-04-01T16:10:12.856Z,8.70
2019-04-01T16:12:42.762Z,10.73
2019-04-01T16:15:12.833Z,10.93
2019-04-01T16:17:42.294Z,8.90
2019-04-01T16:20:13.266Z,7.03
2019-04-01T16:22:43.770Z,8.40
2019-04-01T16:25:13.819Z,7.40
2019-04-01T16:27:43.344Z,5.90
2019-04-01T16:30:13.113Z,7.60
2019-04-01T16:32:42.508Z,11.10
2019-04-01T16:35:12.525Z,10.83
2019-04-01T16:37:42.262Z,15.23
2019-04-01T16:40:12.075Z,12.77
2019-04-01T16:42:41.490Z,10.33
2019-04-01T16:45:13.308Z,9.93
2019-04-01T16:47:43.088Z,11.30
2019-04-01T16:50:13.251Z,9.77
2019-04-01T16:52:43.058Z,13.80
2019-04-01T16:55:13.768Z,17.53
2019-04-01T16:57:43.654Z,13.73
2019-04-01T17:00:14.717Z,13.97
2019-04-01T17:02:44.756Z,13.90
2019-04-01T17:05:18.162Z,16.87
2019-04-01T17:07:48.181Z,17.30
2019-04-01T17:10:26.826Z,22.17
2019-04-01T17:12:56.862Z,18.57
2019-04-01T17:15:26.753Z,18.27
2019-04-01T17:17:56.158Z,28.23
2019-04-01T17:20:25.668Z,18.90
2019-04-01T17:22:55.180Z,41.60
2019-04-01T17:25:26.125Z,12.90
2019-04-01T17:27:55.651Z,28.07
2019-04-01T17:30:26.061Z,41.67
2019-04-01T17:32:55.884Z,94.60
2019-04-01T17:35:26.000Z,35.07
2019-04-01T17:37:55.694Z,28.03
2019-04-01T17:40:25.548Z,13.23
2019-04-01T17:42:56.401Z,21.57
2019-04-01T17:45:33.066Z,10.37
2019-04-01T17:48:04.358Z,19.13
2019-04-01T17:50:34.443Z,11.03
2019-04-01T17:53:05.855Z,17.07
2019-04-01T17:55:35.686Z,11.63
2019-04-01T17:58:07.078Z,14.53
2019-04-01T18:00:42.446Z,9.53
2019-04-01T18:03:12.278Z,10.77
2019-04-01T18:05:41.991Z,10.90
2019-04-01T18:08:11.511Z,19.80
2019-04-01T18:10:41.146Z,7.57
2019-04-01T18:13:10.824Z,10.33
2019-04-01T18:15:40.527Z,9.33
2019-04-01T18:18:10.620Z,8.20
2019-04-01T18:20:40.415Z,8.07
2019-04-01T18:23:10.148Z,7.83
2019-04-01T18:25:41.209Z,20.23
2019-04-01T18:28:10.844Z,39.93
2019-04-01T18:30:40.423Z,32.33
2019-04-01T18:33:10.246Z,46.83
2019-04-01T18:35:39.958Z,25.43
2019-04-01T18:38:09.536Z,12.40
2019-04-01T18:40:39.182Z,10.53
2019-04-01T18:43:08.686Z,8.60
2019-04-01T18:45:38.376Z,15.87
2019-04-01T18:48:07.986Z,18.03
2019-04-01T18:50:37.577Z,13.13
2019-04-01T18:53:07.776Z,9.63
2019-04-01T18:55:37.440Z,7.90
2019-04-01T18:58:07.129Z,10.43
2019-04-01T19:00:36.716Z,7.93
2019-04-01T19:03:06.496Z,8.27
2019-04-01T19:05:36.252Z,7.97
2019-04-01T19:08:05.954Z,9.03
2019-04-01T19:10:35.687Z,9.27
2019-04-01T19:13:11.340Z,11.17
2019-04-01T19:15:41.968Z,12.47
2019-04-01T19:18:12.614Z,11.10
2019-04-01T19:20:55.609Z,11.47
2019-04-01T19:23:13.542Z,10.67
2019-04-01T19:25:43.178Z,10.07
2019-04-01T19:28:12.680Z,12.13
2019-04-01T19:30:43.342Z,8.77
2019-04-01T19:33:13.277Z,8.03
2019-04-01T19:35:42.958Z,8.40
2019-04-01T19:38:14.333Z,8.00
2019-04-01T19:40:43.960Z,7.50
2019-04-01T19:43:13.578Z,7.63
2019-04-01T19:45:45.300Z,7.47
2019-04-01T19:48:15.037Z,7.83
2019-04-01T19:50:45.622Z,9.23
2019-04-01T19:53:15.252Z,10.40
2019-04-01T19:55:44.857Z,8.10
2019-04-01T19:58:14.904Z,7.37
2019-04-01T20:00:44.703Z,9.70
2019-04-01T20:03:14.183Z,10.57
2019-04-01T20:05:43.888Z,20.13
2019-04-01T20:08:14.165Z,16.23
2019-04-01T20:10:44.046Z,13.57
2019-04-01T20:13:13.749Z,18.50
2019-04-01T20:15:43.345Z,12.73
2019-04-01T20:18:13.185Z,13.23
2019-04-01T20:20:43.027Z,10.67
2019-04-01T20:23:14.620Z,14.73
2019-04-01T20:25:47.354Z,7.80
2019-04-01T20:28:15.847Z,8.63
2019-04-01T20:30:45.910Z,7.13
2019-04-01T20:33:17.928Z,8.07
2019-04-01T20:35:47.210Z,9.50
2019-04-01T20:38:16.856Z,7.30
2019-04-01T20:40:46.501Z,11.13
2019-04-01T20:43:16.307Z,8.73
2019-04-01T20:45:45.790Z,11.73
2019-04-01T20:48:15.420Z,11.40
2019-04-01T20:50:45.107Z,8.20
2019-04-01T20:53:14.663Z,7.73
2019-04-01T20:55:48.374Z,6.87
2019-04-01T20:58:15.850Z,7.13
2019-04-01T21:00:45.452Z,8.37
2019-04-01T21:03:15.303Z,8.57
2019-04-01T21:05:45.172Z,9.83
2019-04-01T21:08:16.200Z,17.50
2019-04-01T21:10:45.980Z,22.80
2019-04-01T21:13:15.369Z,17.23
2019-04-01T21:15:44.975Z,12.27
2019-04-01T21:18:14.688Z,9.30
2019-04-01T21:20:44.499Z,9.67
2019-04-01T21:23:13.897Z,10.37
2019-04-01T21:25:43.489Z,8.33
2019-04-01T21:28:13.376Z,7.10
2019-04-01T21:30:42.962Z,8.07
2019-04-01T21:33:13.904Z,8.50
2019-04-01T21:35:43.649Z,7.87
2019-04-01T21:38:13.600Z,9.20
2019-04-01T21:40:43.354Z,6.57
2019-04-01T21:43:12.792Z,6.40
2019-04-01T21:45:42.486Z,6.97
2019-04-01T21:48:11.984Z,7.83
2019-04-01T21:50:41.581Z,6.27
2019-04-01T21:53:11.482Z,9.27
2019-04-01T21:55:41.296Z,7.37
2019-04-01T21:58:10.825Z,7.83
2019-04-01T22:00:59.218Z,7.83
2019-04-01T22:03:28.925Z,9.33
2019-04-01T22:05:58.670Z,10.10
2019-04-01T22:08:28.411Z,9.47
2019-04-01T22:10:58.153Z,12.07
2019-04-01T22:13:27.989Z,9.50
2019-04-01T22:15:57.866Z,8.40
2019-04-01T22:18:27.249Z,7.37
2019-04-01T22:20:56.952Z,7.40
2019-04-01T22:23:26.742Z,11.47
2019-04-01T22:25:56.330Z,10.77
2019-04-01T22:28:25.858Z,20.03
2019-04-01T22:30:55.603Z,12.70
2019-04-01T22:33:27.730Z,9.83
2019-04-01T22:35:56.428Z,26.23
2019-04-01T22:38:26.218Z,17.40
2019-04-01T22:40:55.983Z,14.30
2019-04-01T22:43:25.829Z,9.70
2019-04-01T22:45:55.273Z,8.47
2019-04-01T22:48:25.067Z,23.37
2019-04-01T22:50:57.509Z,22.00
2019-04-01T22:53:26.243Z,16.47
2019-04-01T22:55:56.349Z,11.23
2019-04-01T22:58:26.961Z,9.73
2019-04-01T23:00:56.723Z,10.80
2019-04-01T23:03:26.305Z,9.50
2019-04-01T23:05:55.847Z,9.50
2019-04-01T23:08:25.495Z,11.10
2019-04-01T23:10:56.314Z,9.10
2019-04-01T23:13:26.193Z,11.43
2019-04-01T23:15:55.959Z,9.07
2019-04-01T23:18:25.588Z,11.93
2019-04-01T23:20:55.197Z,9.53
2019-04-01T23:23:24.683Z,9.33
2019-04-01T23:25:55.109Z,10.03
2019-04-01T23:28:25.145Z,10.57
2019-04-01T23:30:54.817Z,10.10
2019-04-01T23:33:24.676Z,11.07
2019-04-01T23:35:54.476Z,8.97
2019-04-01T23:38:24.084Z,9.73
2019-04-01T23:40:53.652Z,8.30
2019-04-01T23:43:23.412Z,8.27
2019-04-01T23:45:52.962Z,7.93
2019-04-01T23:48:22.400Z,8.37
2019-04-01T23:50:52.173Z,10.73
2019-04-01T23:53:21.572Z,9.80
2019-04-01T23:55:51.116Z,9.50
2019-04-01T23:58:22.339Z,9.50
